Time;durP1;ratioP1;P1;durP2;ratioP2;P2;SDS_P1;SDS_P2;PMS_P1;PMS_P2;Temp;Humidity;BMP_temperature;BMP_pressure;BME280_temperature;BME280_humidity;BME280_pressure;Samples;Min_cycle;Max_cycle;Signal;HPM_P1;HPM_P2
2024/01/07 00:00:43;;;;;;;4.83;1.60;;;;;;;;;;5072185;28;20649;-59
2024/01/07 00:03:09;;;;;;;1.67;1.27;;;;;;;;;;5073801;28;20226;-58
2024/01/07 00:05:37;;;;;;;4.73;1.60;;;;;;;;;;5073560;28;20220;-61
2024/01/07 00:08:03;;;;;;;2.47;1.30;;;;;;;;;;5072646;28;20187;-60
2024/01/07 00:10:29;;;;;;;1.83;1.23;;;;;;;;;;5071974;28;20181;-61
2024/01/07 00:12:55;;;;;;;2.87;1.30;;;;;;;;;;5071391;28;20367;-63
2024/01/07 00:15:21;;;;;;;4.07;1.30;;;;;;;;;;5071439;28;20267;-59
2024/01/07 00:17:47;;;;;;;1.30;0.93;;;;;;;;;;5074084;28;20160;-60
2024/01/07 00:20:13;;;;;;;1.70;1.07;;;;;;;;;;5073886;28;20509;-60
2024/01/07 00:22:39;;;;;;;5.37;1.27;;;;;;;;;;5073471;28;20563;-59
2024/01/07 00:25:05;;;;;;;1.97;1.43;;;;;;;;;;5071996;28;20218;-60
2024/01/07 00:27:31;;;;;;;2.53;1.43;;;;;;;;;;5071614;28;20337;-61
2024/01/07 00:29:57;;;;;;;3.13;1.33;;;;;;;;;;5071596;28;20161;-60
2024/01/07 00:32:23;;;;;;;3.57;1.30;;;;;;;;;;5071782;28;20593;-61
2024/01/07 00:34:49;;;;;;;1.00;0.80;;;;;;;;;;5071321;28;20181;-61
2024/01/07 00:37:15;;;;;;;2.17;1.47;;;;;;;;;;5071215;28;20172;-60
2024/01/07 00:39:42;;;;;;;2.77;1.30;;;;;;;;;;5073432;28;20173;-60
2024/01/07 00:42:08;;;;;;;1.70;1.07;;;;;;;;;;5075479;28;20202;-60
2024/01/07 00:44:33;;;;;;;1.63;1.37;;;;;;;;;;5075618;28;20161;-60
2024/01/07 00:46:59;;;;;;;1.50;1.20;;;;;;;;;;5076354;28;20173;-59
2024/01/07 00:49:27;;;;;;;2.00;1.23;;;;;;;;;;5076124;28;20700;-60
2024/01/07 00:51:53;;;;;;;3.07;1.30;;;;;;;;;;5075485;28;20542;-59
2024/01/07 00:54:19;;;;;;;2.23;1.17;;;;;;;;;;5076264;28;20528;-61
2024/01/07 00:56:46;;;;;;;3.57;1.87;;;;;;;;;;5077693;28;20165;-60
2024/01/07 00:59:12;;;;;;;3.13;1.40;;;;;;;;;;5076976;28;20173;-60
2024/01/07 01:01:38;;;;;;;1.17;1.00;;;;;;;;;;5076604;28;20282;-60
2024/01/07 01:04:04;;;;;;;2.87;1.50;;;;;;;;;;5076450;28;20237;-59
2024/01/07 01:06:30;;;;;;;3.10;1.33;;;;;;;;;;5077160;28;20196;-61
2024/01/07 01:08:56;;;;;;;1.13;0.93;;;;;;;;;;5077807;28;20199;-58
2024/01/07 01:11:22;;;;;;;4.40;1.03;;;;;;;;;;5078231;28;20204;-60
2024/01/07 01:13:48;;;;;;;1.40;1.20;;;;;;;;;;5077000;28;20548;-59
2024/01/07 01:16:14;;;;;;;2.90;1.00;;;;;;;;;;5076628;28;20739;-60
2024/01/07 01:18:40;;;;;;;1.70;1.10;;;;;;;;;;5077100;28;20180;-60
2024/01/07 01:21:07;;;;;;;2.27;1.13;;;;;;;;;;5076421;28;20175;-58
2024/01/07 01:23:34;;;;;;;1.57;1.20;;;;;;;;;;5076170;28;20176;-60
2024/01/07 01:26:02;;;;;;;3.47;1.00;;;;;;;;;;5075757;28;20212;-58
2024/01/07 01:28:33;;;;;;;3.00;1.20;;;;;;;;;;5074656;28;20169;-60
2024/01/07 01:31:02;;;;;;;2.00;0.97;;;;;;;;;;5076387;28;20330;-59
2024/01/07 01:33:31;;;;;;;3.20;1.20;;;;;;;;;;5075928;28;20189;-58
2024/01/07 01:36:01;;;;;;;3.47;1.20;;;;;;;;;;5076733;28;20192;-56
2024/01/07 01:38:30;;;;;;;1.73;1.30;;;;;;;;;;5076854;28;20179;-57
2024/01/07 01:40:58;;;;;;;3.03;1.47;;;;;;;;;;5077360;28;20157;-59
2024/01/07 01:43:30;;;;;;;2.63;1.50;;;;;;;;;;5075803;28;20169;-59
2024/01/07 01:45:59;;;;;;;1.97;1.47;;;;;;;;;;5076653;28;20498;-60
2024/01/07 01:48:28;;;;;;;1.83;1.00;;;;;;;;;;5076201;28;20520;-60
2024/01/07 01:50:57;;;;;;;4.60;1.17;;;;;;;;;;5075193;28;20187;-57
2024/01/07 01:53:29;;;;;;;2.40;1.27;;;;;;;;;;5076345;28;20160;-60
2024/01/07 01:55:59;;;;;;;2.73;1.57;;;;;;;;;;5075768;28;20533;-61
2024/01/07 01:58:28;;;;;;;3.90;1.13;;;;;;;;;;5076491;28;20226;-60
2024/01/07 02:00:56;;;;;;;6.63;1.57;;;;;;;;;;5075971;28;20619;-60
2024/01/07 02:03:25;;;;;;;3.07;1.17;;;;;;;;;;5076034;28;20185;-59
2024/01/07 02:05:55;;;;;;;5.17;1.23;;;;;;;;;;5076416;28;20271;-58
2024/01/07 02:08:24;;;;;;;1.33;1.17;;;;;;;;;;5074849;28;20175;-59
2024/01/07 02:10:53;;;;;;;2.70;1.30;;;;;;;;;;5069340;28;20169;-60
2024/01/07 02:13:22;;;;;;;1.37;1.07;;;;;;;;;;5070885;28;20441;-60
2024/01/07 02:15:48;;;;;;;2.13;1.27;;;;;;;;;;5073870;28;20700;-60
2024/01/07 02:18:14;;;;;;;1.80;1.00;;;;;;;;;;5078790;28;20283;-60
2024/01/07 02:20:40;;;;;;;3.70;1.40;;;;;;;;;;5078706;28;20230;-59
2024/01/07 02:23:07;;;;;;;3.43;1.10;;;;;;;;;;5096717;28;20225;-59
2024/01/07 02:25:36;;;;;;;3.47;1.60;;;;;;;;;;5078413;28;20272;-60
2024/01/07 02:28:02;;;;;;;2.07;1.10;;;;;;;;;;5079125;28;20161;-59
2024/01/07 02:30:28;;;;;;;1.67;1.00;;;;;;;;;;5078026;28;20196;-60
2024/01/07 02:32:54;;;;;;;2.30;1.67;;;;;;;;;;5078790;28;20161;-60
2024/01/07 02:35:20;;;;;;;1.77;1.00;;;;;;;;;;5077991;28;20175;-60
2024/01/07 02:37:46;;;;;;;1.17;0.93;;;;;;;;;;5077959;28;20329;-60
2024/01/07 02:40:12;;;;;;;1.53;1.17;;;;;;;;;;5077993;28;20267;-60
2024/01/07 02:42:38;;;;;;;1.33;1.23;;;;;;;;;;5077866;28;20707;-60
2024/01/07 02:45:04;;;;;;;2.10;1.13;;;;;;;;;;5077536;28;20195;-59
2024/01/07 02:47:30;;;;;;;2.07;1.20;;;;;;;;;;5095218;28;20163;-60
2024/01/07 02:49:56;;;;;;;2.57;1.20;;;;;;;;;;5078329;28;20172;-59
2024/01/07 02:52:22;;;;;;;1.20;1.10;;;;;;;;;;5078961;28;20237;-58
2024/01/07 02:54:48;;;;;;;1.63;1.20;;;;;;;;;;5079121;28;20362;-59
2024/01/07 02:57:14;;;;;;;1.20;1.07;;;;;;;;;;5096737;28;20545;-59
2024/01/07 02:59:40;;;;;;;2.20;1.13;;;;;;;;;;5096421;28;20583;-58
2024/01/07 03:02:06;;;;;;;1.83;0.90;;;;;;;;;;5078988;28;20180;-58
2024/01/07 03:04:32;;;;;;;4.33;1.00;;;;;;;;;;5078566;28;20507;-59
2024/01/07 03:06:58;;;;;;;1.30;1.10;;;;;;;;;;5096149;28;20453;-60
2024/01/07 03:09:25;;;;;;;3.40;1.10;;;;;;;;;;5078235;28;20518;-60
2024/01/07 03:12:07;;;;;;;0.97;0.80;;;;;;;;;;5112535;27;20556;-59
2024/01/07 03:14:33;;;;;;;2.17;1.00;;;;;;;;;;5112643;28;20683;-59
2024/01/07 03:16:59;;;;;;;2.17;1.37;;;;;;;;;;5112756;28;20251;-59
2024/01/07 03:19:24;;;;;;;1.80;1.10;;;;;;;;;;5111786;28;20274;-58
2024/01/07 03:21:51;;;;;;;1.60;0.90;;;;;;;;;;5110985;28;20221;-59
2024/01/07 03:24:16;;;;;;;1.60;1.10;;;;;;;;;;5111371;28;20160;-59
2024/01/07 03:26:42;;;;;;;1.30;1.07;;;;;;;;;;5110956;28;20228;-59
2024/01/07 03:29:08;;;;;;;2.13;0.90;;;;;;;;;;5112234;28;20178;-59
2024/01/07 03:31:34;;;;;;;2.73;1.10;;;;;;;;;;5111905;28;20199;-58
2024/01/07 03:34:00;;;;;;;1.30;1.03;;;;;;;;;;5111178;28;20167;-59
2024/01/07 03:36:26;;;;;;;1.30;0.90;;;;;;;;;;5108226;28;20174;-57
2024/01/07 03:38:53;;;;;;;1.50;0.97;;;;;;;;;;5106917;28;20172;-56
2024/01/07 03:41:20;;;;;;;2.20;1.30;;;;;;;;;;5105663;28;20317;-59
2024/01/07 03:43:47;;;;;;;3.27;1.43;;;;;;;;;;5105530;28;20325;-58
2024/01/07 03:46:12;;;;;;;1.03;0.87;;;;;;;;;;5107254;28;20250;-58
2024/01/07 03:48:38;;;;;;;3.90;1.10;;;;;;;;;;5106950;28;20713;-59
2024/01/07 03:51:04;;;;;;;1.27;0.87;;;;;;;;;;5106130;28;20543;-58
2024/01/07 03:53:30;;;;;;;2.37;0.97;;;;;;;;;;5106075;28;20237;-58
2024/01/07 03:55:56;;;;;;;1.43;1.20;;;;;;;;;;5105160;28;20176;-56
2024/01/07 03:58:22;;;;;;;1.77;1.30;;;;;;;;;;5107653;28;20175;-59
2024/01/07 04:00:48;;;;;;;1.90;1.00;;;;;;;;;;5106547;28;20168;-59
2024/01/07 04:03:14;;;;;;;3.07;1.40;;;;;;;;;;5106649;28;20198;-59
2024/01/07 04:05:40;;;;;;;2.73;1.13;;;;;;;;;;5108236;28;20230;-57
2024/01/07 04:08:06;;;;;;;1.50;1.13;;;;;;;;;;5106355;28;20167;-59
2024/01/07 04:10:32;;;;;;;1.17;0.90;;;;;;;;;;5105506;28;20280;-59
2024/01/07 04:12:58;;;;;;;1.93;1.00;;;;;;;;;;5107156;28;20176;-57
2024/01/07 04:15:25;;;;;;;4.97;1.00;;;;;;;;;;5109059;28;20248;-59
2024/01/07 04:17:50;;;;;;;1.23;0.80;;;;;;;;;;5109846;28;20185;-59
2024/01/07 04:20:17;;;;;;;1.03;0.77;;;;;;;;;;5110284;28;20176;-58
2024/01/07 04:22:43;;;;;;;1.63;0.80;;;;;;;;;;5102160;28;20168;-57
2024/01/07 04:25:10;;;;;;;1.13;1.00;;;;;;;;;;5096297;28;20244;-59
2024/01/07 04:27:36;;;;;;;1.23;0.93;;;;;;;;;;5095711;28;20172;-59
2024/01/07 04:30:03;;;;;;;2.50;1.00;;;;;;;;;;5096148;28;20219;-59
2024/01/07 04:32:29;;;;;;;1.20;1.00;;;;;;;;;;5097179;28;20175;-59
2024/01/07 04:34:57;;;;;;;0.83;0.80;;;;;;;;;;5097389;28;20161;-59
2024/01/07 04:37:23;;;;;;;2.03;0.90;;;;;;;;;;5097330;28;20213;-59
2024/01/07 04:39:48;;;;;;;5.90;1.10;;;;;;;;;;5098752;28;20172;-59
2024/01/07 04:42:15;;;;;;;1.30;1.20;;;;;;;;;;5096510;28;20187;-57
2024/01/07 04:44:41;;;;;;;2.40;0.70;;;;;;;;;;5097802;28;20172;-58
2024/01/07 04:47:23;;;;;;;0.83;0.83;;;;;;;;;;5098130;28;20165;-57
2024/01/07 04:49:50;;;;;;;4.43;1.30;;;;;;;;;;5098584;28;20183;-59
2024/01/07 04:52:16;;;;;;;1.47;1.13;;;;;;;;;;5097604;28;20168;-56
2024/01/07 04:54:42;;;;;;;0.87;0.70;;;;;;;;;;5097520;28;20183;-57
2024/01/07 05:00:12;;;;;;;1.30;0.80;;;;;;;;;;5097702;28;20198;-58
2024/01/07 05:02:38;;;;;;;1.83;0.87;;;;;;;;;;5097617;28;20656;-58
2024/01/07 05:05:04;;;;;;;1.10;0.70;;;;;;;;;;5097923;28;20188;-58
2024/01/07 05:07:30;;;;;;;0.70;0.67;;;;;;;;;;5092314;28;20512;-57
2024/01/07 05:09:56;;;;;;;3.03;1.03;;;;;;;;;;5093422;28;20237;-58
2024/01/07 05:12:22;;;;;;;0.93;0.60;;;;;;;;;;5094542;28;20233;-58
2024/01/07 05:14:48;;;;;;;0.70;0.60;;;;;;;;;;5094275;28;20229;-59
2024/01/07 05:17:14;;;;;;;1.90;0.90;;;;;;;;;;5096552;28;20191;-58
2024/01/07 05:19:43;;;;;;;1.37;1.00;;;;;;;;;;5095367;28;20200;-59
2024/01/07 05:22:09;;;;;;;4.53;1.53;;;;;;;;;;5097416;28;20172;-58
2024/01/07 05:24:38;;;;;;;1.80;1.00;;;;;;;;;;5096450;28;20706;-58
2024/01/07 05:27:04;;;;;;;1.23;0.70;;;;;;;;;;5095495;28;20180;-58
2024/01/07 05:29:30;;;;;;;2.70;0.83;;;;;;;;;;5096838;28;20249;-57
2024/01/07 05:31:57;;;;;;;4.67;1.10;;;;;;;;;;5096854;28;20215;-57
2024/01/07 05:34:23;;;;;;;0.70;0.70;;;;;;;;;;5096237;28;20213;-59
2024/01/07 05:36:49;;;;;;;0.50;0.50;;;;;;;;;;5096493;28;20252;-62
2024/01/07 05:39:15;;;;;;;0.93;0.63;;;;;;;;;;5097901;28;20235;-59
2024/01/07 05:41:41;;;;;;;0.83;0.67;;;;;;;;;;5096887;28;20271;-58
2024/01/07 05:44:08;;;;;;;0.60;0.60;;;;;;;;;;5096711;28;20280;-59
2024/01/07 05:46:34;;;;;;;1.30;0.80;;;;;;;;;;5096031;28;20216;-59
2024/01/07 05:49:00;;;;;;;0.60;0.60;;;;;;;;;;5095843;28;20264;-59
2024/01/07 05:51:26;;;;;;;1.00;0.70;;;;;;;;;;5096872;28;20192;-59
2024/01/07 05:53:52;;;;;;;3.87;0.97;;;;;;;;;;5096607;28;20217;-59
2024/01/07 05:56:18;;;;;;;0.63;0.63;;;;;;;;;;5095950;28;20180;-59
2024/01/07 05:58:44;;;;;;;0.80;0.70;;;;;;;;;;5096444;28;20533;-58
2024/01/07 06:01:10;;;;;;;1.03;0.67;;;;;;;;;;5095989;28;20604;-59
2024/01/07 06:03:36;;;;;;;0.80;0.60;;;;;;;;;;5093977;28;20540;-59
2024/01/07 06:06:02;;;;;;;0.83;0.60;;;;;;;;;;5095935;28;20251;-59
2024/01/07 06:08:28;;;;;;;2.03;0.70;;;;;;;;;;5096645;28;20659;-59
2024/01/07 06:10:53;;;;;;;0.73;0.70;;;;;;;;;;5094993;28;20234;-59
2024/01/07 06:13:19;;;;;;;2.17;0.80;;;;;;;;;;5095902;28;20176;-56
2024/01/07 06:15:45;;;;;;;3.50;0.90;;;;;;;;;;5094917;28;20267;-59
2024/01/07 06:18:11;;;;;;;0.80;0.60;;;;;;;;;;5095664;28;20266;-59
2024/01/07 06:20:37;;;;;;;1.10;0.70;;;;;;;;;;5095855;28;20167;-58
2024/01/07 06:23:04;;;;;;;1.37;0.80;;;;;;;;;;5096337;28;20168;-59
2024/01/07 06:25:30;;;;;;;1.03;0.70;;;;;;;;;;5094499;28;20279;-56
2024/01/07 06:27:56;;;;;;;1.23;0.77;;;;;;;;;;5095794;28;20202;-59
2024/01/07 06:30:22;;;;;;;1.30;0.60;;;;;;;;;;5095263;28;20202;-57
2024/01/07 06:32:48;;;;;;;1.23;0.87;;;;;;;;;;5094893;28;20156;-59
2024/01/07 06:35:14;;;;;;;2.83;0.80;;;;;;;;;;5094591;28;20649;-59
2024/01/07 06:37:40;;;;;;;1.60;0.93;;;;;;;;;;5094151;28;20686;-59
2024/01/07 06:40:06;;;;;;;0.87;0.70;;;;;;;;;;5094305;28;20244;-58
2024/01/07 06:42:32;;;;;;;3.70;0.70;;;;;;;;;;5094699;28;20186;-57
2024/01/07 06:44:58;;;;;;;0.93;0.70;;;;;;;;;;5093785;28;20381;-55
2024/01/07 06:47:24;;;;;;;1.17;1.07;;;;;;;;;;5094892;28;20253;-60
2024/01/07 06:49:49;;;;;;;2.10;1.23;;;;;;;;;;5094737;28;20563;-58
2024/01/07 06:52:15;;;;;;;1.93;1.10;;;;;;;;;;5094700;28;20267;-59
2024/01/07 06:54:41;;;;;;;2.07;1.33;;;;;;;;;;5095338;28;20632;-58
2024/01/07 06:57:07;;;;;;;2.00;0.93;;;;;;;;;;5095302;28;20218;-58
2024/01/07 06:59:33;;;;;;;5.07;1.27;;;;;;;;;;5095926;28;20157;-57
2024/01/07 07:01:59;;;;;;;1.30;1.03;;;;;;;;;;5094844;28;20233;-59
2024/01/07 07:04:25;;;;;;;1.57;0.90;;;;;;;;;;5094957;28;20178;-59
2024/01/07 07:06:51;;;;;;;2.87;1.47;;;;;;;;;;5093772;28;20200;-60
2024/01/07 07:09:17;;;;;;;1.00;0.90;;;;;;;;;;5092857;28;20172;-58
2024/01/07 07:11:43;;;;;;;1.10;1.00;;;;;;;;;;5093183;28;20258;-58
2024/01/07 07:14:09;;;;;;;3.43;1.10;;;;;;;;;;5092510;28;20271;-59
2024/01/07 07:16:35;;;;;;;3.13;1.17;;;;;;;;;;5093825;28;20192;-59
2024/01/07 07:19:01;;;;;;;2.07;1.40;;;;;;;;;;5093182;28;20179;-59
2024/01/07 07:21:27;;;;;;;2.47;1.23;;;;;;;;;;5092707;28;20233;-58
2024/01/07 07:23:53;;;;;;;1.93;1.30;;;;;;;;;;5093532;28;20184;-59
2024/01/07 07:26:19;;;;;;;3.20;1.30;;;;;;;;;;5094799;28;20188;-58
2024/01/07 07:28:45;;;;;;;2.93;2.03;;;;;;;;;;5093138;28;20557;-59
2024/01/07 07:31:12;;;;;;;2.37;1.67;;;;;;;;;;5093242;28;20567;-59
2024/01/07 07:33:39;;;;;;;6.87;1.83;;;;;;;;;;5093981;28;20215;-59
2024/01/07 07:36:05;;;;;;;5.20;1.97;;;;;;;;;;5093335;28;20666;-58
2024/01/07 07:38:32;;;;;;;4.23;1.73;;;;;;;;;;5093695;28;20259;-59
2024/01/07 07:40:58;;;;;;;1.93;1.57;;;;;;;;;;5093566;28;20474;-59
2024/01/07 07:43:24;;;;;;;6.30;1.93;;;;;;;;;;5093962;28;20440;-60
2024/01/07 07:45:50;;;;;;;2.70;1.90;;;;;;;;;;5094573;28;20676;-60
2024/01/07 07:48:17;;;;;;;3.60;2.13;;;;;;;;;;5094732;28;20687;-59
2024/01/07 07:50:42;;;;;;;4.63;2.00;;;;;;;;;;5092705;28;20489;-58
2024/01/07 07:53:08;;;;;;;6.93;1.97;;;;;;;;;;5092824;28;20175;-59
2024/01/07 07:55:35;;;;;;;3.30;2.00;;;;;;;;;;5093439;28;20267;-56
2024/01/07 07:58:01;;;;;;;9.97;1.70;;;;;;;;;;5094721;28;20160;-58
2024/01/07 08:00:26;;;;;;;3.87;2.07;;;;;;;;;;5096644;28;20172;-58
2024/01/07 08:02:52;;;;;;;4.90;2.13;;;;;;;;;;5097311;28;20179;-56
2024/01/07 08:05:18;;;;;;;2.63;2.00;;;;;;;;;;5096880;28;20165;-58
2024/01/07 08:07:44;;;;;;;2.77;1.87;;;;;;;;;;5095722;28;20255;-59
2024/01/07 08:10:10;;;;;;;3.20;2.00;;;;;;;;;;5095642;28;20354;-58
2024/01/07 08:12:36;;;;;;;3.47;2.07;;;;;;;;;;5096982;28;20510;-59
2024/01/07 08:15:02;;;;;;;5.37;1.67;;;;;;;;;;5096606;28;20190;-58
2024/01/07 08:17:29;;;;;;;4.13;2.23;;;;;;;;;;5096767;28;20691;-59
2024/01/07 08:19:55;;;;;;;4.53;2.20;;;;;;;;;;5096861;28;20156;-59
2024/01/07 08:22:21;;;;;;;4.87;1.80;;;;;;;;;;5096658;28;20156;-59
2024/01/07 08:24:47;;;;;;;5.17;2.00;;;;;;;;;;5096451;28;20167;-58
2024/01/07 08:27:13;;;;;;;5.80;2.33;;;;;;;;;;5096744;28;20451;-59
2024/01/07 08:29:39;;;;;;;3.23;1.83;;;;;;;;;;5097419;28;20265;-59
2024/01/07 08:32:05;;;;;;;2.13;1.70;;;;;;;;;;5096426;28;20257;-58
2024/01/07 08:34:31;;;;;;;2.73;2.03;;;;;;;;;;5096983;28;20175;-59
2024/01/07 08:36:57;;;;;;;3.40;2.10;;;;;;;;;;5097161;28;20220;-58
2024/01/07 08:39:25;;;;;;;3.83;2.10;;;;;;;;;;5096382;28;20442;-59
2024/01/07 08:41:51;;;;;;;3.33;2.17;;;;;;;;;;5096680;28;20187;-56
2024/01/07 08:44:18;;;;;;;3.10;1.57;;;;;;;;;;5095150;28;20176;-58
2024/01/07 08:46:45;;;;;;;4.33;2.13;;;;;;;;;;5095837;28;20168;-58
2024/01/07 08:49:11;;;;;;;5.80;1.80;;;;;;;;;;5095620;28;20491;-59
2024/01/07 08:51:38;;;;;;;2.70;1.80;;;;;;;;;;5095654;28;20591;-59
2024/01/07 08:54:04;;;;;;;2.70;1.97;;;;;;;;;;5095629;28;20544;-60
2024/01/07 08:56:30;;;;;;;3.53;2.00;;;;;;;;;;5096581;28;20183;-59
2024/01/07 08:58:56;;;;;;;3.37;1.93;;;;;;;;;;5095930;28;20171;-59
2024/01/07 09:01:22;;;;;;;2.37;1.77;;;;;;;;;;5095158;28;20191;-59
2024/01/07 09:03:47;;;;;;;3.83;2.00;;;;;;;;;;5094567;28;20176;-55
2024/01/07 09:06:13;;;;;;;2.23;1.90;;;;;;;;;;5095030;28;20176;-62
2024/01/07 09:08:39;;;;;;;3.93;1.97;;;;;;;;;;5095723;28;20176;-57
2024/01/07 09:11:06;;;;;;;5.43;2.43;;;;;;;;;;5096780;28;20235;-59
2024/01/07 09:13:32;;;;;;;4.50;1.80;;;;;;;;;;5095195;28;20172;-59
2024/01/07 09:15:58;;;;;;;7.93;2.13;;;;;;;;;;5094092;28;20169;-59
2024/01/07 09:18:24;;;;;;;2.50;1.73;;;;;;;;;;5094792;28;20242;-59
2024/01/07 09:20:50;;;;;;;2.90;2.10;;;;;;;;;;5096386;28;20172;-59
2024/01/07 09:23:16;;;;;;;2.67;1.57;;;;;;;;;;5094923;28;20161;-59
2024/01/07 09:25:43;;;;;;;3.57;1.73;;;;;;;;;;5093688;28;20195;-58
2024/01/07 09:28:09;;;;;;;3.50;2.40;;;;;;;;;;5094038;28;20227;-59
2024/01/07 09:30:35;;;;;;;3.97;2.30;;;;;;;;;;5093489;28;20835;-59
2024/01/07 09:33:01;;;;;;;3.63;1.43;;;;;;;;;;5093841;28;20270;-59
2024/01/07 09:35:27;;;;;;;1.83;1.60;;;;;;;;;;5095304;28;20796;-59
2024/01/07 09:37:54;;;;;;;5.60;1.67;;;;;;;;;;5094109;28;20241;-59
2024/01/07 09:40:20;;;;;;;2.10;1.80;;;;;;;;;;5093824;28;20204;-59
2024/01/07 09:42:46;;;;;;;2.80;1.83;;;;;;;;;;5093712;28;20653;-59
2024/01/07 09:45:13;;;;;;;3.57;1.77;;;;;;;;;;5094936;28;20168;-59
2024/01/07 09:47:40;;;;;;;2.13;1.53;;;;;;;;;;5093278;28;20280;-58
2024/01/07 09:50:06;;;;;;;3.37;1.63;;;;;;;;;;5093621;28;20172;-58
2024/01/07 09:52:33;;;;;;;3.27;1.60;;;;;;;;;;5094054;28;20212;-58
2024/01/07 09:55:03;;;;;;;3.07;1.80;;;;;;;;;;5093108;28;20742;-58
2024/01/07 09:57:30;;;;;;;4.67;2.17;;;;;;;;;;5093316;28;20160;-59
2024/01/07 09:59:56;;;;;;;3.00;2.00;;;;;;;;;;5091892;28;20179;-59
2024/01/07 10:02:23;;;;;;;6.63;1.73;;;;;;;;;;5092731;28;20156;-58
2024/01/07 10:04:49;;;;;;;4.10;2.03;;;;;;;;;;5092600;28;20249;-57
2024/01/07 10:07:16;;;;;;;2.00;1.60;;;;;;;;;;5092320;28;20168;-59
2024/01/07 10:09:45;;;;;;;2.87;2.20;;;;;;;;;;5093057;28;20222;-60
2024/01/07 10:12:12;;;;;;;1.97;1.27;;;;;;;;;;5093621;28;20207;-61
2024/01/07 10:14:40;;;;;;;1.93;1.73;;;;;;;;;;5093991;28;20164;-59
2024/01/07 10:17:15;;;;;;;3.67;2.00;;;;;;;;;;5092982;28;20583;-59
2024/01/07 10:19:43;;;;;;;4.17;2.83;;;;;;;;;;5091486;28;20167;-59
2024/01/07 10:22:10;;;;;;;3.23;2.07;;;;;;;;;;5093282;28;20172;-59
2024/01/07 10:24:40;;;;;;;1.63;1.43;;;;;;;;;;5093168;28;20550;-58
2024/01/07 10:27:06;;;;;;;3.40;1.87;;;;;;;;;;5094044;28;20184;-59
2024/01/07 10:29:33;;;;;;;2.40;1.40;;;;;;;;;;5094504;28;20168;-59
2024/01/07 10:32:02;;;;;;;2.60;1.60;;;;;;;;;;5093064;28;20252;-59
2024/01/07 10:34:29;;;;;;;2.50;1.70;;;;;;;;;;5093486;28;20272;-59
2024/01/07 10:36:57;;;;;;;2.57;1.63;;;;;;;;;;5094479;28;20540;-58
2024/01/07 10:39:24;;;;;;;1.73;1.43;;;;;;;;;;5093076;28;20597;-59
2024/01/07 10:41:52;;;;;;;9.53;3.43;;;;;;;;;;5093144;28;20192;-59
2024/01/07 10:44:18;;;;;;;2.23;1.20;;;;;;;;;;5093886;28;20176;-59
2024/01/07 10:46:45;;;;;;;4.33;1.40;;;;;;;;;;5093083;28;20169;-59
2024/01/07 10:49:20;;;;;;;2.10;1.30;;;;;;;;;;5092866;28;20164;-59
2024/01/07 10:51:50;;;;;;;2.17;1.43;;;;;;;;;;5090820;28;20274;-59
2024/01/07 10:54:19;;;;;;;2.13;1.73;;;;;;;;;;5091447;28;20195;-60
2024/01/07 10:56:46;;;;;;;2.23;1.50;;;;;;;;;;5090904;28;20241;-60
2024/01/07 10:59:12;;;;;;;4.80;1.80;;;;;;;;;;5090158;28;20172;-60
2024/01/07 11:01:39;;;;;;;2.37;1.73;;;;;;;;;;5090953;28;20233;-59
2024/01/07 11:04:09;;;;;;;4.33;1.90;;;;;;;;;;5089705;28;20446;-60
2024/01/07 11:06:35;;;;;;;2.00;1.60;;;;;;;;;;5089675;28;20266;-59
2024/01/07 11:09:15;;;;;;;2.00;1.67;;;;;;;;;;5090919;28;20542;-60
2024/01/07 11:11:42;;;;;;;2.87;1.77;;;;;;;;;;5092440;28;20223;-60
2024/01/07 11:14:27;;;;;;;3.50;1.90;;;;;;;;;;5090705;28;20672;-60
2024/01/07 11:16:53;;;;;;;1.93;1.40;;;;;;;;;;5092594;28;20174;-58
2024/01/07 11:19:20;;;;;;;3.53;1.87;;;;;;;;;;5093596;28;20186;-60
2024/01/07 11:21:46;;;;;;;3.97;1.73;;;;;;;;;;5092786;28;20470;-59
2024/01/07 11:24:31;;;;;;;4.80;1.87;;;;;;;;;;5092991;28;20649;-60
2024/01/07 11:27:02;;;;;;;5.20;1.70;;;;;;;;;;5093877;28;20223;-60
2024/01/07 11:29:28;;;;;;;2.00;1.80;;;;;;;;;;5091832;28;20172;-59
2024/01/07 11:31:54;;;;;;;2.70;1.60;;;;;;;;;;5092082;28;20199;-60
2024/01/07 11:34:39;;;;;;;3.43;1.90;;;;;;;;;;5096163;28;20189;-60
2024/01/07 11:37:08;;;;;;;1.97;1.77;;;;;;;;;;5095484;28;20258;-60
2024/01/07 11:39:35;;;;;;;2.30;1.63;;;;;;;;;;5094627;28;20168;-58
2024/01/07 11:42:01;;;;;;;3.97;1.63;;;;;;;;;;5093639;28;20223;-59
2024/01/07 11:44:27;;;;;;;2.80;1.90;;;;;;;;;;5093898;28;20234;-57
2024/01/07 11:46:53;;;;;;;4.03;2.00;;;;;;;;;;5075934;28;20672;-59
2024/01/07 11:49:21;;;;;;;3.67;1.57;;;;;;;;;;5092920;28;20168;-60
2024/01/07 11:51:48;;;;;;;2.87;1.97;;;;;;;;;;5093963;28;20294;-60
2024/01/07 11:54:15;;;;;;;2.47;1.73;;;;;;;;;;5094015;28;20183;-60
2024/01/07 11:56:42;;;;;;;2.40;1.90;;;;;;;;;;5094197;28;20180;-61
2024/01/07 11:59:08;;;;;;;3.83;2.23;;;;;;;;;;5093959;28;20176;-57
2024/01/07 12:01:34;;;;;;;3.03;2.20;;;;;;;;;;5095188;28;20206;-60
2024/01/07 12:04:00;;;;;;;2.07;1.80;;;;;;;;;;5095375;28;20176;-60
2024/01/07 12:06:27;;;;;;;4.40;2.00;;;;;;;;;;5095889;28;20175;-58
2024/01/07 12:08:53;;;;;;;3.60;2.03;;;;;;;;;;5077054;28;20187;-58
2024/01/07 12:11:19;;;;;;;4.57;2.73;;;;;;;;;;5095195;28;20231;-59
2024/01/07 12:13:47;;;;;;;3.60;1.50;;;;;;;;;;5095727;28;20175;-59
2024/01/07 12:16:14;;;;;;;2.90;1.73;;;;;;;;;;5093343;28;20168;-60
2024/01/07 12:18:42;;;;;;;2.37;1.63;;;;;;;;;;5094583;28;20164;-59
2024/01/07 12:21:10;;;;;;;2.17;1.37;;;;;;;;;;5092845;28;20179;-58
2024/01/07 12:23:40;;;;;;;3.50;1.70;;;;;;;;;;5093625;28;20253;-58
2024/01/07 12:26:12;;;;;;;3.43;1.30;;;;;;;;;;5094242;28;20205;-59
2024/01/07 12:28:41;;;;;;;5.90;1.87;;;;;;;;;;5094374;28;20168;-59
2024/01/07 12:31:08;;;;;;;2.70;1.40;;;;;;;;;;5094948;28;20207;-59
2024/01/07 12:33:34;;;;;;;4.43;1.47;;;;;;;;;;5095048;28;20180;-65
2024/01/07 12:36:01;;;;;;;2.87;1.73;;;;;;;;;;5094717;28;20240;-65
2024/01/07 12:38:28;;;;;;;3.40;1.37;;;;;;;;;;5095850;28;20184;-65
2024/01/07 12:40:54;;;;;;;2.13;1.40;;;;;;;;;;5096315;28;20160;-65
2024/01/07 12:43:21;;;;;;;3.83;1.60;;;;;;;;;;5094757;28;20827;-63
2024/01/07 12:45:50;;;;;;;2.37;1.37;;;;;;;;;;5095183;28;20175;-58
2024/01/07 12:48:16;;;;;;;3.97;1.47;;;;;;;;;;5095169;28;20175;-59
2024/01/07 12:50:43;;;;;;;1.57;1.40;;;;;;;;;;5094382;28;20787;-59
2024/01/07 12:53:09;;;;;;;1.80;1.40;;;;;;;;;;5095569;28;20264;-60
2024/01/07 12:55:35;;;;;;;2.20;1.43;;;;;;;;;;5095448;28;20284;-60
2024/01/07 12:58:01;;;;;;;4.77;1.57;;;;;;;;;;5095132;28;20214;-60
2024/01/07 13:00:28;;;;;;;2.90;1.70;;;;;;;;;;5095175;28;20565;-60
2024/01/07 13:02:54;;;;;;;2.10;1.33;;;;;;;;;;5095309;28;20191;-60
2024/01/07 13:05:21;;;;;;;4.03;1.83;;;;;;;;;;5096842;28;20745;-59
2024/01/07 13:07:48;;;;;;;4.27;1.50;;;;;;;;;;5095258;28;20207;-59
2024/01/07 13:10:15;;;;;;;3.47;1.67;;;;;;;;;;5095030;28;20648;-59
2024/01/07 13:12:41;;;;;;;2.23;1.70;;;;;;;;;;5094691;28;20180;-59
2024/01/07 13:15:07;;;;;;;5.27;1.70;;;;;;;;;;5092944;28;20169;-60
2024/01/07 13:17:33;;;;;;;3.00;1.60;;;;;;;;;;5092689;28;20185;-59
2024/01/07 13:19:59;;;;;;;8.40;2.17;;;;;;;;;;5093130;28;20168;-60
2024/01/07 13:22:26;;;;;;;2.50;1.80;;;;;;;;;;5092316;28;20283;-60
2024/01/07 13:24:54;;;;;;;2.90;1.67;;;;;;;;;;5093760;28;20176;-60
2024/01/07 13:27:21;;;;;;;4.93;1.47;;;;;;;;;;5094035;28;20257;-60
2024/01/07 13:29:47;;;;;;;2.67;1.87;;;;;;;;;;5091851;28;20172;-57
2024/01/07 13:32:18;;;;;;;4.23;1.73;;;;;;;;;;5091863;28;20796;-60
2024/01/07 13:34:44;;;;;;;3.50;1.30;;;;;;;;;;5090217;28;20168;-60
2024/01/07 13:37:10;;;;;;;2.90;1.63;;;;;;;;;;5089564;28;20160;-60
2024/01/07 13:39:36;;;;;;;4.13;1.77;;;;;;;;;;5089582;28;20727;-59
2024/01/07 13:42:02;;;;;;;2.83;1.70;;;;;;;;;;5092537;28;20225;-58
2024/01/07 13:44:28;;;;;;;3.83;1.53;;;;;;;;;;5093081;28;20693;-59
2024/01/07 13:46:54;;;;;;;2.50;1.10;;;;;;;;;;5092018;28;20647;-58
2024/01/07 13:49:20;;;;;;;2.97;1.73;;;;;;;;;;5091358;28;20202;-60
2024/01/07 13:51:46;;;;;;;3.27;1.43;;;;;;;;;;5090611;28;20541;-60
2024/01/07 13:54:14;;;;;;;5.13;1.40;;;;;;;;;;5090744;28;20835;-59
2024/01/07 13:56:42;;;;;;;2.03;1.37;;;;;;;;;;5091243;28;20172;-60
2024/01/07 13:59:08;;;;;;;2.40;1.60;;;;;;;;;;5091390;28;20164;-60
2024/01/07 14:01:34;;;;;;;4.23;1.73;;;;;;;;;;5091836;28;20194;-59
2024/01/07 14:04:01;;;;;;;1.97;1.43;;;;;;;;;;5092798;28;20176;-58
2024/01/07 14:06:27;;;;;;;1.70;1.40;;;;;;;;;;5092038;28;20466;-59
2024/01/07 14:08:53;;;;;;;1.93;1.23;;;;;;;;;;5090512;28;20171;-59
2024/01/07 14:11:19;;;;;;;3.70;1.53;;;;;;;;;;5091091;28;20224;-60
2024/01/07 14:13:46;;;;;;;1.93;1.33;;;;;;;;;;5090719;28;20169;-59
2024/01/07 14:16:12;;;;;;;1.87;1.50;;;;;;;;;;5092611;28;20565;-60
2024/01/07 14:18:38;;;;;;;1.70;1.30;;;;;;;;;;5089895;28;20650;-59
2024/01/07 14:21:04;;;;;;;3.03;1.57;;;;;;;;;;5089267;28;20180;-60
2024/01/07 14:23:31;;;;;;;1.57;1.23;;;;;;;;;;5090941;28;20195;-59
2024/01/07 14:25:57;;;;;;;2.43;1.57;;;;;;;;;;5090040;28;20178;-59
2024/01/07 14:28:23;;;;;;;1.77;1.40;;;;;;;;;;5091232;28;20247;-60
2024/01/07 14:30:49;;;;;;;2.53;1.60;;;;;;;;;;5089420;28;20198;-60
2024/01/07 14:33:15;;;;;;;3.70;1.70;;;;;;;;;;5089220;28;20176;-58
2024/01/07 14:35:41;;;;;;;2.20;1.57;;;;;;;;;;5089454;28;20280;-60
2024/01/07 14:38:07;;;;;;;1.93;1.53;;;;;;;;;;5090286;28;20234;-59
2024/01/07 14:40:34;;;;;;;2.40;1.43;;;;;;;;;;5090129;28;20196;-60
2024/01/07 14:43:00;;;;;;;1.80;1.33;;;;;;;;;;5089865;28;20168;-59